createdAt,value
2018-03-24T00:01:10.549Z,96.60
2018-03-24T00:03:36.965Z,96.70
2018-03-24T00:06:03.434Z,96.80
2018-03-24T00:08:29.976Z,96.90
2018-03-24T00:10:56.407Z,97.00
2018-03-24T00:13:22.932Z,97.10
2018-03-24T00:15:49.409Z,96.80
2018-03-24T00:18:15.921Z,96.70
2018-03-24T00:20:42.318Z,96.70
2018-03-24T00:23:08.722Z,97.10
2018-03-24T00:25:35.141Z,97.10
2018-03-24T00:28:01.643Z,96.80
2018-03-24T00:30:28.299Z,96.80
2018-03-24T00:32:55.541Z,97.50
2018-03-24T00:35:21.974Z,97.40
2018-03-24T00:37:48.481Z,97.60
2018-03-24T00:40:14.924Z,97.80
2018-03-24T00:42:41.416Z,97.90
2018-03-24T00:45:08.627Z,98.10
2018-03-24T00:47:35.052Z,98.10
2018-03-24T00:50:01.530Z,98.10
2018-03-24T00:52:27.988Z,98.10
2018-03-24T00:54:55.146Z,98.10
2018-03-24T00:57:21.653Z,98.10
2018-03-24T00:59:48.074Z,98.00
2018-03-24T01:02:14.545Z,98.20
2018-03-24T01:04:41.832Z,98.50
2018-03-24T01:07:08.236Z,98.50
2018-03-24T01:09:35.416Z,98.90
2018-03-24T01:12:01.886Z,98.90
2018-03-24T01:14:28.345Z,99.30
2018-03-24T01:16:55.529Z,99.50
2018-03-24T01:19:22.626Z,99.50
2018-03-24T01:21:49.206Z,99.30
2018-03-24T01:24:15.605Z,99.50
2018-03-24T01:26:42.054Z,99.40
2018-03-24T01:29:08.578Z,99.70
2018-03-24T01:31:35.302Z,99.60
2018-03-24T01:34:02.062Z,99.50
2018-03-24T01:36:28.453Z,99.60
2018-03-24T01:38:55.633Z,99.80
2018-03-24T01:41:22.117Z,99.70
2018-03-24T01:43:48.585Z,99.80
2018-03-24T01:46:15.033Z,99.70
2018-03-24T01:48:41.534Z,99.60
2018-03-24T01:51:08.256Z,99.90
2018-03-24T01:53:47.246Z,99.90
2018-03-24T01:56:14.520Z,99.90
2018-03-24T01:58:41.164Z,99.90
2018-03-24T02:01:07.725Z,99.90
2018-03-24T02:03:34.195Z,99.90
2018-03-24T02:06:00.702Z,99.90
2018-03-24T02:08:27.425Z,99.90
2018-03-24T02:10:53.946Z,99.90
2018-03-24T02:13:20.495Z,99.90
2018-03-24T02:15:47.192Z,99.80
2018-03-24T02:18:14.408Z,99.90
2018-03-24T02:20:41.088Z,99.90
2018-03-24T02:23:08.311Z,99.90
2018-03-24T02:25:34.894Z,99.90
2018-03-24T02:28:01.720Z,99.90
2018-03-24T02:30:28.195Z,99.90
2018-03-24T02:32:55.482Z,99.90
2018-03-24T02:35:22.669Z,99.90
2018-03-24T02:37:49.954Z,99.90
2018-03-24T02:40:16.567Z,99.90
2018-03-24T02:42:43.252Z,99.90
2018-03-24T02:45:09.718Z,99.90
2018-03-24T02:47:37.128Z,99.90
2018-03-24T02:50:03.718Z,99.90
2018-03-24T02:52:30.298Z,99.90
2018-03-24T02:54:56.913Z,99.90
2018-03-24T02:57:23.477Z,99.90
2018-03-24T02:59:50.008Z,99.90
2018-03-24T03:02:16.500Z,99.90
2018-03-24T03:04:43.331Z,99.90
2018-03-24T03:07:09.910Z,99.90
2018-03-24T03:09:37.578Z,99.90
2018-03-24T03:12:04.937Z,99.90
2018-03-24T03:14:31.439Z,99.90
2018-03-24T03:16:57.968Z,99.90
2018-03-24T03:19:24.432Z,99.90
2018-03-24T03:21:51.875Z,99.90
2018-03-24T03:24:18.320Z,99.90
2018-03-24T03:26:45.552Z,99.90
2018-03-24T03:29:12.399Z,99.90
2018-03-24T03:31:38.977Z,99.90
2018-03-24T03:34:05.432Z,99.90
2018-03-24T03:36:31.873Z,99.90
2018-03-24T03:38:58.349Z,99.90
2018-03-24T03:41:25.548Z,99.90
2018-03-24T03:43:52.025Z,99.90
2018-03-24T03:46:18.542Z,99.90
2018-03-24T03:48:45.141Z,99.90
2018-03-24T03:51:11.532Z,99.90
2018-03-24T03:53:38.349Z,99.90
2018-03-24T03:56:05.523Z,99.90
2018-03-24T03:58:32.004Z,99.90
2018-03-24T04:00:58.440Z,99.90
2018-03-24T04:03:24.882Z,99.90
2018-03-24T04:05:51.357Z,99.90
2018-03-24T04:08:17.855Z,99.90
2018-03-24T04:10:44.366Z,99.90
2018-03-24T04:13:10.875Z,99.90
2018-03-24T04:15:38.081Z,99.90
2018-03-24T04:18:04.587Z,99.90
2018-03-24T04:20:31.068Z,99.90
2018-03-24T04:22:57.462Z,99.90
2018-03-24T04:25:23.878Z,99.90
2018-03-24T04:27:51.031Z,99.90
2018-03-24T04:30:17.465Z,99.90
2018-03-24T04:32:43.872Z,99.90
2018-03-24T04:35:10.408Z,99.90
2018-03-24T04:37:37.682Z,99.90
2018-03-24T04:40:04.888Z,99.90
2018-03-24T04:42:31.324Z,99.90
2018-03-24T04:44:57.792Z,99.90
2018-03-24T04:47:24.202Z,99.90
2018-03-24T04:49:50.660Z,99.80
2018-03-24T04:52:17.140Z,99.90
2018-03-24T04:54:43.592Z,99.90
2018-03-24T04:57:10.295Z,99.90
2018-03-24T04:59:36.776Z,99.90
2018-03-24T05:02:03.253Z,99.90
2018-03-24T05:04:29.697Z,99.90
2018-03-24T05:06:56.146Z,99.90
2018-03-24T05:09:22.599Z,99.90
2018-03-24T05:11:49.836Z,99.90
2018-03-24T05:14:16.453Z,99.90
2018-03-24T05:16:42.894Z,99.70
2018-03-24T05:19:10.213Z,99.70
2018-03-24T05:21:36.626Z,99.70
2018-03-24T05:24:03.125Z,99.70
2018-03-24T05:26:29.545Z,99.50
2018-03-24T05:28:56.748Z,99.40
2018-03-24T05:31:23.262Z,99.40
2018-03-24T05:33:50.472Z,99.20
2018-03-24T05:36:16.958Z,99.20
2018-03-24T05:38:43.397Z,99.10
2018-03-24T05:41:10.029Z,99.00
2018-03-24T05:43:36.435Z,99.00
2018-03-24T05:46:02.898Z,99.00
2018-03-24T05:48:29.410Z,99.00
2018-03-24T05:50:56.658Z,98.80
2018-03-24T05:53:23.070Z,98.80
2018-03-24T05:55:50.224Z,98.70
2018-03-24T05:58:16.689Z,98.70
2018-03-24T06:00:43.070Z,98.40
2018-03-24T06:03:10.437Z,98.10
2018-03-24T06:05:36.913Z,98.00
2018-03-24T06:08:03.360Z,97.80
2018-03-24T06:10:29.906Z,97.20
2018-03-24T06:12:56.406Z,95.00
2018-03-24T06:15:22.840Z,92.10
2018-03-24T06:17:49.341Z,85.60
2018-03-24T06:20:15.853Z,80.10
2018-03-24T06:22:42.338Z,79.20
2018-03-24T06:25:08.796Z,78.10
2018-03-24T06:27:35.296Z,74.60
2018-03-24T06:30:02.535Z,70.40
2018-03-24T06:32:29.038Z,70.40
2018-03-24T06:34:55.547Z,68.10
2018-03-24T06:37:22.092Z,68.10
2018-03-24T06:39:48.503Z,67.80
2018-03-24T06:42:14.946Z,67.10
2018-03-24T06:44:41.391Z,64.70
2018-03-24T06:47:07.844Z,62.80
2018-03-24T06:49:34.355Z,60.40
2018-03-24T06:52:00.888Z,59.50
2018-03-24T06:54:27.300Z,62.00
2018-03-24T06:56:54.524Z,61.20
2018-03-24T06:59:20.982Z,61.20
2018-03-24T07:01:47.409Z,64.20
2018-03-24T07:04:13.819Z,66.20
2018-03-24T07:06:40.238Z,63.70
2018-03-24T07:09:06.690Z,64.20
2018-03-24T07:11:33.228Z,63.20
2018-03-24T07:13:59.771Z,60.50
2018-03-24T07:16:26.359Z,63.80
2018-03-24T07:21:25.802Z,60.10
2018-03-24T07:23:52.269Z,64.80
2018-03-24T07:26:18.770Z,62.60
2018-03-24T07:28:45.442Z,59.60
2018-03-24T07:31:11.914Z,57.60
2018-03-24T07:33:38.342Z,55.80
2018-03-24T07:36:04.779Z,56.90
2018-03-24T07:38:31.221Z,56.50
2018-03-24T07:40:57.753Z,57.40
2018-03-24T07:43:24.290Z,58.00
2018-03-24T07:45:50.761Z,58.20
2018-03-24T07:48:17.189Z,56.50
2018-03-24T07:50:44.567Z,56.80
2018-03-24T07:53:11.015Z,56.80
2018-03-24T07:55:38.266Z,60.00
2018-03-24T07:58:05.434Z,62.10
2018-03-24T08:00:31.873Z,61.90
2018-03-24T08:02:59.694Z,69.40
2018-03-24T08:05:26.120Z,69.40
2018-03-24T08:07:52.562Z,63.30
2018-03-24T08:10:19.111Z,61.00
2018-03-24T08:12:46.320Z,62.90
2018-03-24T08:15:12.771Z,62.90
2018-03-24T08:17:39.240Z,63.70
2018-03-24T08:20:05.714Z,66.30
2018-03-24T08:22:32.172Z,67.90
2018-03-24T08:24:58.593Z,70.80
2018-03-24T08:27:25.074Z,73.90
2018-03-24T08:29:51.482Z,76.70
2018-03-24T08:32:17.900Z,78.50
2018-03-24T08:34:44.581Z,81.20
2018-03-24T08:37:11.845Z,82.50
2018-03-24T08:39:38.326Z,82.50
2018-03-24T08:42:04.782Z,82.70
2018-03-24T08:44:31.197Z,82.50
2018-03-24T08:46:57.650Z,82.40
2018-03-24T08:49:24.156Z,82.40
2018-03-24T08:51:51.473Z,81.70
2018-03-24T08:54:18.221Z,81.70
2018-03-24T08:56:44.714Z,82.50
2018-03-24T08:59:12.104Z,83.40
2018-03-24T09:01:39.296Z,83.80
2018-03-24T09:04:05.806Z,83.80
2018-03-24T09:06:32.300Z,83.80
2018-03-24T09:08:58.871Z,84.50
2018-03-24T09:11:26.527Z,84.20
2018-03-24T09:13:53.038Z,85.10
2018-03-24T09:16:20.281Z,86.80
2018-03-24T09:18:47.563Z,87.00
2018-03-24T09:21:14.097Z,87.00
2018-03-24T09:23:40.592Z,86.60
2018-03-24T09:26:07.042Z,87.10
2018-03-24T09:28:34.310Z,88.20
2018-03-24T09:31:00.746Z,88.10
2018-03-24T09:33:27.190Z,88.20
2018-03-24T09:35:53.789Z,88.50
2018-03-24T09:38:20.295Z,88.70
2018-03-24T09:40:46.690Z,89.40
2018-03-24T09:43:13.152Z,89.60
2018-03-24T09:45:39.630Z,88.80
2018-03-24T09:48:06.169Z,89.00
2018-03-24T09:50:32.936Z,88.90
2018-03-24T09:52:59.423Z,89.10
2018-03-24T09:55:25.892Z,89.20
2018-03-24T09:57:52.330Z,89.60
2018-03-24T10:00:19.558Z,89.70
2018-03-24T10:02:46.164Z,89.50
2018-03-24T10:05:12.884Z,89.70
2018-03-24T10:07:39.312Z,89.40
2018-03-24T10:10:06.156Z,89.30
2018-03-24T10:12:32.796Z,88.50
2018-03-24T10:14:59.549Z,89.00
2018-03-24T10:17:26.111Z,88.80
2018-03-24T10:19:52.611Z,88.80
2018-03-24T10:25:28.928Z,87.30
2018-03-24T10:27:55.428Z,87.30
2018-03-24T10:30:21.848Z,88.10
2018-03-24T10:32:49.005Z,89.40
2018-03-24T10:35:16.146Z,89.70
2018-03-24T10:37:59.336Z,89.70
2018-03-24T10:40:25.872Z,90.10
2018-03-24T10:42:59.123Z,90.10
2018-03-24T10:45:25.647Z,90.10
2018-03-24T10:47:52.067Z,90.00
2018-03-24T10:50:18.509Z,90.10
2018-03-24T10:52:45.912Z,90.50
2018-03-24T10:55:12.334Z,90.50
2018-03-24T10:57:38.956Z,90.50
2018-03-24T11:00:05.393Z,90.50
2018-03-24T11:02:31.837Z,90.60
2018-03-24T11:04:58.290Z,90.70
2018-03-24T11:07:24.742Z,90.40
2018-03-24T11:09:51.133Z,90.00
2018-03-24T11:12:17.635Z,89.60
2018-03-24T11:14:44.209Z,89.60
2018-03-24T11:17:10.795Z,90.10
2018-03-24T11:19:37.294Z,89.70
2018-03-24T11:22:03.828Z,88.20
2018-03-24T11:24:31.284Z,87.80
2018-03-24T11:26:57.744Z,87.70
2018-03-24T11:29:24.281Z,87.40
2018-03-24T11:31:50.757Z,87.40
2018-03-24T11:34:17.243Z,88.00
2018-03-24T11:36:44.656Z,87.50
2018-03-24T11:39:11.182Z,87.40
2018-03-24T11:41:38.650Z,87.40
2018-03-24T11:44:05.917Z,86.50
2018-03-24T11:46:32.508Z,86.40
2018-03-24T11:48:59.103Z,87.60
2018-03-24T11:51:25.573Z,87.80
2018-03-24T11:53:52.096Z,88.50
2018-03-24T11:56:18.556Z,89.40
2018-03-24T11:58:45.221Z,89.90
2018-03-24T12:01:11.669Z,89.60
2018-03-24T12:03:38.121Z,89.50
2018-03-24T12:06:04.689Z,89.80
2018-03-24T12:08:31.277Z,90.10
2018-03-24T12:10:57.687Z,90.50
2018-03-24T12:13:24.958Z,90.50
2018-03-24T12:15:51.526Z,90.40
2018-03-24T12:18:18.092Z,90.30
2018-03-24T12:20:44.716Z,90.30
2018-03-24T12:23:11.416Z,90.40
2018-03-24T12:25:37.942Z,90.60
2018-03-24T12:28:04.386Z,90.30
2018-03-24T12:30:30.944Z,89.60
2018-03-24T12:32:57.371Z,88.40
2018-03-24T12:35:24.014Z,88.70
2018-03-24T12:37:50.808Z,88.60
2018-03-24T12:40:17.306Z,88.70
2018-03-24T12:42:43.741Z,89.30
2018-03-24T12:45:10.243Z,89.40
2018-03-24T12:47:36.892Z,88.80
2018-03-24T12:50:03.362Z,88.40
2018-03-24T12:52:29.966Z,88.00
2018-03-24T12:54:56.425Z,86.70
2018-03-24T12:57:22.948Z,86.20
2018-03-24T12:59:50.176Z,82.10
2018-03-24T13:02:17.216Z,82.10
2018-03-24T13:04:43.682Z,79.80
2018-03-24T13:07:10.233Z,79.80
2018-03-24T13:09:36.820Z,80.70
2018-03-24T13:12:03.347Z,82.00
2018-03-24T13:14:30.691Z,85.70
2018-03-24T13:16:57.885Z,86.40
2018-03-24T13:19:24.318Z,86.30
2018-03-24T13:21:50.840Z,86.30
2018-03-24T13:24:18.024Z,86.80
2018-03-24T13:26:44.586Z,86.80
2018-03-24T13:29:11.757Z,87.50
2018-03-24T13:31:39.077Z,87.60
2018-03-24T13:34:05.631Z,87.60
2018-03-24T13:36:32.161Z,87.60
2018-03-24T13:38:58.614Z,87.70
2018-03-24T13:41:26.081Z,87.60
2018-03-24T13:43:53.486Z,87.70
2018-03-24T13:46:19.995Z,87.70
2018-03-24T13:48:46.464Z,88.40
2018-03-24T13:51:12.957Z,88.10
2018-03-24T13:53:39.554Z,87.80
2018-03-24T13:56:06.077Z,87.90
2018-03-24T13:58:32.517Z,88.10
2018-03-24T14:00:59.037Z,88.00
2018-03-24T14:03:25.469Z,88.00
2018-03-24T14:05:52.241Z,88.20
2018-03-24T14:08:19.673Z,88.70
2018-03-24T14:10:46.208Z,88.70
2018-03-24T14:13:12.712Z,89.10
2018-03-24T14:15:40.259Z,88.80
2018-03-24T14:18:06.726Z,88.20
2018-03-24T14:20:33.328Z,88.40
2018-03-24T14:22:59.793Z,88.70
2018-03-24T14:25:26.330Z,88.70
2018-03-24T14:27:52.859Z,88.60
2018-03-24T14:30:19.373Z,88.60
2018-03-24T14:32:45.800Z,88.90
2018-03-24T14:35:13.027Z,88.80
2018-03-24T14:37:39.553Z,88.80
2018-03-24T14:40:06.877Z,88.80
2018-03-24T14:42:33.462Z,88.70
2018-03-24T14:45:00.794Z,88.80
2018-03-24T14:47:27.597Z,88.70
2018-03-24T14:49:54.118Z,88.50
2018-03-24T14:52:20.644Z,88.40
2018-03-24T14:54:47.826Z,88.10
2018-03-24T14:57:14.378Z,88.00
2018-03-24T14:59:40.789Z,88.30
2018-03-24T15:02:07.309Z,88.30
2018-03-24T15:04:33.760Z,88.50
2018-03-24T15:07:00.266Z,88.70
2018-03-24T15:09:27.474Z,89.30
2018-03-24T15:11:53.890Z,89.30
2018-03-24T15:14:20.274Z,89.40
2018-03-24T15:16:47.507Z,89.80
2018-03-24T15:19:13.958Z,89.80
2018-03-24T15:21:40.607Z,90.10
2018-03-24T15:24:07.817Z,90.10
2018-03-24T15:26:34.361Z,90.00
2018-03-24T15:29:12.984Z,90.00
2018-03-24T15:31:51.482Z,90.10
2018-03-24T15:34:30.161Z,90.20
2018-03-24T15:36:57.397Z,90.20
2018-03-24T15:39:24.683Z,90.30
2018-03-24T15:41:51.313Z,90.30
2018-03-24T15:44:17.883Z,90.50
2018-03-24T15:46:44.488Z,90.50
2018-03-24T15:49:11.125Z,90.60
2018-03-24T15:51:38.074Z,90.70
2018-03-24T15:54:04.589Z,90.70
2018-03-24T15:56:31.892Z,90.80
2018-03-24T15:58:58.411Z,90.80
2018-03-24T16:01:25.041Z,90.70
2018-03-24T16:03:51.620Z,90.80
2018-03-24T16:06:18.083Z,90.80
2018-03-24T16:08:45.398Z,91.00
2018-03-24T16:11:12.003Z,90.90
2018-03-24T16:13:39.469Z,91.40
2018-03-24T16:16:05.904Z,91.00
2018-03-24T16:18:32.479Z,91.00
2018-03-24T16:20:59.101Z,91.00
2018-03-24T16:23:26.600Z,91.30
2018-03-24T16:25:53.079Z,91.20
2018-03-24T16:28:20.307Z,91.30
2018-03-24T16:30:46.783Z,91.20
2018-03-24T16:33:14.338Z,91.40
2018-03-24T16:35:40.744Z,91.40
2018-03-24T16:38:07.307Z,91.40
2018-03-24T16:40:33.914Z,91.40
2018-03-24T16:43:01.141Z,92.00
2018-03-24T16:45:27.646Z,91.50
2018-03-24T16:47:55.140Z,91.60
2018-03-24T16:50:22.400Z,91.70
2018-03-24T16:52:48.853Z,91.70
2018-03-24T16:55:15.417Z,91.70
2018-03-24T16:57:42.376Z,91.70
2018-03-24T17:00:09.054Z,91.70
2018-03-24T17:02:35.521Z,91.80
2018-03-24T17:05:02.037Z,91.80
2018-03-24T17:07:28.601Z,91.80
2018-03-24T17:09:55.980Z,92.00
2018-03-24T17:12:22.443Z,92.00
2018-03-24T17:14:48.913Z,91.90
2018-03-24T17:17:15.562Z,91.90
2018-03-24T17:19:42.267Z,91.90
2018-03-24T17:22:09.009Z,92.00
2018-03-24T17:24:35.786Z,92.00
2018-03-24T17:27:02.537Z,92.10
2018-03-24T17:29:28.965Z,92.00
2018-03-24T17:31:55.470Z,92.10
2018-03-24T17:34:22.018Z,92.10
2018-03-24T17:36:48.513Z,92.10
2018-03-24T17:39:15.936Z,92.40
2018-03-24T17:41:42.690Z,92.30
2018-03-24T17:44:09.122Z,92.40
2018-03-24T17:46:35.648Z,92.40
2018-03-24T17:49:02.180Z,92.40
2018-03-24T17:51:28.829Z,92.40
2018-03-24T17:53:55.315Z,92.40
2018-03-24T17:56:21.924Z,92.50
2018-03-24T17:58:49.339Z,92.80
2018-03-24T18:01:15.780Z,92.40
2018-03-24T18:03:42.185Z,92.40
2018-03-24T18:06:08.604Z,92.40
2018-03-24T18:08:35.092Z,92.60
2018-03-24T18:11:01.541Z,92.50
2018-03-24T18:13:28.769Z,92.60
2018-03-24T18:15:55.360Z,92.60
2018-03-24T18:18:21.790Z,92.60
2018-03-24T18:20:48.947Z,92.70
2018-03-24T18:23:16.114Z,92.60
2018-03-24T18:25:43.312Z,92.70
2018-03-24T18:28:09.789Z,92.70
2018-03-24T18:30:37.040Z,92.80
2018-03-24T18:33:03.557Z,92.80
2018-03-24T18:35:30.153Z,93.10
2018-03-24T18:37:56.652Z,93.10
2018-03-24T18:40:23.981Z,93.30
2018-03-24T18:42:50.476Z,93.20
2018-03-24T18:45:16.993Z,93.30
2018-03-24T18:47:43.485Z,93.30
2018-03-24T18:50:09.929Z,93.40
2018-03-24T18:52:37.142Z,93.40
2018-03-24T18:55:03.732Z,93.40
2018-03-24T18:57:30.753Z,93.40
2018-03-24T18:59:57.995Z,93.50
2018-03-24T19:02:24.576Z,93.50
2018-03-24T19:04:54.206Z,93.50
2018-03-24T19:07:22.088Z,93.60
2018-03-24T19:09:48.535Z,93.60
2018-03-24T19:12:15.023Z,93.70
2018-03-24T19:14:41.630Z,93.80
2018-03-24T19:17:08.092Z,93.80
2018-03-24T19:19:38.401Z,94.00
2018-03-24T19:22:05.586Z,94.10
2018-03-24T19:24:32.350Z,94.40
2018-03-24T19:27:06.344Z,94.10
2018-03-24T19:29:34.980Z,94.20
2018-03-24T19:32:06.281Z,94.40
2018-03-24T19:34:32.801Z,94.40
2018-03-24T19:36:59.584Z,94.40
2018-03-24T19:39:26.130Z,94.50
2018-03-24T19:41:52.767Z,94.50
2018-03-24T19:44:19.525Z,94.50
2018-03-24T19:46:46.130Z,94.60
2018-03-24T19:49:12.673Z,94.70
2018-03-24T19:51:39.136Z,94.80
2018-03-24T19:54:06.376Z,94.80
2018-03-24T19:56:32.867Z,94.80
2018-03-24T19:58:59.297Z,94.90
2018-03-24T20:01:25.935Z,94.80
2018-03-24T20:03:52.376Z,94.90
2018-03-24T20:06:18.922Z,95.00
2018-03-24T20:08:45.659Z,94.90
2018-03-24T20:11:12.144Z,95.00
2018-03-24T20:13:39.389Z,95.00
2018-03-24T20:16:05.875Z,95.30
2018-03-24T20:18:32.473Z,95.00
2018-03-24T20:20:59.758Z,95.40
2018-03-24T20:23:26.225Z,95.30
2018-03-24T20:25:52.766Z,95.40
2018-03-24T20:28:19.329Z,95.50
2018-03-24T20:30:46.701Z,95.70
2018-03-24T20:33:13.165Z,95.70
2018-03-24T20:35:39.668Z,95.80
2018-03-24T20:38:06.808Z,96.00
2018-03-24T20:40:33.326Z,96.20
2018-03-24T20:43:00.628Z,96.30
2018-03-24T20:45:27.132Z,96.30
2018-03-24T20:47:53.600Z,96.30
2018-03-24T20:50:20.012Z,96.40
2018-03-24T20:52:47.252Z,96.50
2018-03-24T20:55:13.772Z,96.50
2018-03-24T20:57:40.928Z,96.50
2018-03-24T21:00:07.392Z,96.50
2018-03-24T21:02:34.560Z,96.40
2018-03-24T21:05:01.098Z,96.40
2018-03-24T21:07:27.617Z,96.40
2018-03-24T21:09:54.059Z,96.40
2018-03-24T21:12:20.509Z,96.50
2018-03-24T21:14:47.006Z,96.50
2018-03-24T21:17:14.122Z,96.60
2018-03-24T21:19:41.235Z,96.60
2018-03-24T21:22:07.765Z,96.60
2018-03-24T21:24:34.178Z,96.70
2018-03-24T21:27:00.808Z,96.60
2018-03-24T21:29:27.272Z,96.80
2018-03-24T21:31:53.901Z,96.80
2018-03-24T21:34:21.139Z,96.80
2018-03-24T21:36:48.427Z,96.90
2018-03-24T21:39:14.904Z,96.90
2018-03-24T21:41:41.375Z,96.90
2018-03-24T21:44:08.585Z,97.10
2018-03-24T21:46:34.985Z,97.00
2018-03-24T21:49:01.379Z,97.10
2018-03-24T21:51:30.912Z,97.00
2018-03-24T21:53:57.431Z,97.00
2018-03-24T21:56:31.738Z,97.10
2018-03-24T21:58:59.012Z,97.10
2018-03-24T22:01:25.889Z,97.10
2018-03-24T22:03:53.146Z,97.00
2018-03-24T22:06:19.581Z,97.00
2018-03-24T22:08:46.587Z,97.10
2018-03-24T22:11:13.035Z,97.00
2018-03-24T22:13:39.539Z,96.90
2018-03-24T22:16:06.207Z,96.90
2018-03-24T22:18:32.726Z,97.00
2018-03-24T22:21:00.067Z,96.90
2018-03-24T22:23:27.297Z,97.00
2018-03-24T22:25:54.523Z,96.90
2018-03-24T22:28:20.926Z,96.90
2018-03-24T22:30:47.406Z,97.00
2018-03-24T22:33:13.836Z,97.00
2018-03-24T22:35:40.435Z,97.00
2018-03-24T22:38:07.847Z,97.10
2018-03-24T22:40:34.331Z,97.10
2018-03-24T22:43:00.913Z,97.10
2018-03-24T22:45:27.355Z,97.10
2018-03-24T22:47:53.857Z,97.10
2018-03-24T22:50:20.291Z,97.10
2018-03-24T22:52:47.064Z,97.10
2018-03-24T22:55:13.533Z,97.10
2018-03-24T22:57:40.761Z,97.10
2018-03-24T23:00:07.986Z,97.10
2018-03-24T23:02:34.429Z,97.10
2018-03-24T23:05:00.917Z,97.30
2018-03-24T23:07:27.348Z,97.20
2018-03-24T23:09:53.782Z,97.30
2018-03-24T23:12:20.471Z,97.30
2018-03-24T23:14:46.911Z,97.20
2018-03-24T23:17:13.433Z,97.30
2018-03-24T23:19:39.915Z,97.40
2018-03-24T23:22:07.127Z,97.40
2018-03-24T23:24:34.345Z,97.40
2018-03-24T23:27:00.820Z,97.40
2018-03-24T23:29:27.279Z,97.40
2018-03-24T23:31:54.542Z,97.50
2018-03-24T23:34:20.960Z,97.40
2018-03-24T23:36:48.182Z,97.50
2018-03-24T23:39:14.593Z,97.50
2018-03-24T23:41:41.358Z,97.50
2018-03-24T23:44:07.821Z,97.50
2018-03-24T23:46:35.115Z,97.50
2018-03-24T23:49:01.600Z,97.50
2018-03-24T23:51:28.008Z,97.50
2018-03-24T23:53:54.584Z,97.50
2018-03-24T23:56:21.741Z,97.60
2018-03-24T23:58:49.009Z,97.70
